sensor_id;sensor_type;location;lat;lon;timestamp;P1;durP1;ratioP1;P2;durP2;ratioP2
4027;SDS011;2028;51.346;12.396;2023-12-14T00:02:23;19.20;;;17.30;;
4027;SDS011;2028;51.346;12.396;2023-12-14T00:04:49;20.00;;;17.80;;
4027;SDS011;2028;51.346;12.396;2023-12-14T00:07:16;18.80;;;17.00;;
4027;SDS011;2028;51.346;12.396;2023-12-14T00:09:42;21.20;;;19.03;;
4027;SDS011;2028;51.346;12.396;2023-12-14T00:12:08;19.93;;;18.00;;
4027;SDS011;2028;51.346;12.396;2023-12-14T00:14:35;23.83;;;21.33;;
4027;SDS011;2028;51.346;12.396;2023-12-14T00:17:01;22.00;;;19.77;;
4027;SDS011;2028;51.346;12.396;2023-12-14T00:19:28;22.03;;;19.77;;
4027;SDS011;2028;51.346;12.396;2023-12-14T00:21:54;21.50;;;19.37;;
4027;SDS011;2028;51.346;12.396;2023-12-14T00:24:20;21.13;;;19.03;;
4027;SDS011;2028;51.346;12.396;2023-12-14T00:26:46;22.47;;;20.13;;
4027;SDS011;2028;51.346;12.396;2023-12-14T00:29:12;24.77;;;20.83;;
4027;SDS011;2028;51.346;12.396;2023-12-14T00:31:39;23.13;;;19.93;;
4027;SDS011;2028;51.346;12.396;2023-12-14T00:34:05;24.00;;;21.43;;
4027;SDS011;2028;51.346;12.396;2023-12-14T00:36:32;29.50;;;24.53;;
4027;SDS011;2028;51.346;12.396;2023-12-14T00:38:58;32.27;;;21.53;;
4027;SDS011;2028;51.346;12.396;2023-12-14T00:41:24;26.23;;;20.93;;
4027;SDS011;2028;51.346;12.396;2023-12-14T00:43:51;25.23;;;20.90;;
4027;SDS011;2028;51.346;12.396;2023-12-14T00:46:17;24.27;;;19.23;;
4027;SDS011;2028;51.346;12.396;2023-12-14T00:48:43;23.43;;;20.80;;
4027;SDS011;2028;51.346;12.396;2023-12-14T00:51:09;25.40;;;20.83;;
4027;SDS011;2028;51.346;12.396;2023-12-14T00:53:35;24.53;;;18.87;;
4027;SDS011;2028;51.346;12.396;2023-12-14T00:56:02;24.47;;;20.00;;
4027;SDS011;2028;51.346;12.396;2023-12-14T00:58:28;29.57;;;23.97;;
4027;SDS011;2028;51.346;12.396;2023-12-14T01:00:54;23.23;;;20.53;;
4027;SDS011;2028;51.346;12.396;2023-12-14T01:03:21;25.37;;;21.87;;
4027;SDS011;2028;51.346;12.396;2023-12-14T01:05:47;23.93;;;20.30;;
4027;SDS011;2028;51.346;12.396;2023-12-14T01:08:13;24.97;;;20.40;;
4027;SDS011;2028;51.346;12.396;2023-12-14T01:10:40;23.30;;;20.57;;
4027;SDS011;2028;51.346;12.396;2023-12-14T01:13:07;23.43;;;19.50;;
4027;SDS011;2028;51.346;12.396;2023-12-14T01:15:33;25.40;;;19.87;;
4027;SDS011;2028;51.346;12.396;2023-12-14T01:17:59;23.97;;;18.87;;
4027;SDS011;2028;51.346;12.396;2023-12-14T01:20:26;23.73;;;18.43;;
4027;SDS011;2028;51.346;12.396;2023-12-14T01:22:52;22.50;;;19.17;;
4027;SDS011;2028;51.346;12.396;2023-12-14T01:25:18;23.37;;;18.77;;
4027;SDS011;2028;51.346;12.396;2023-12-14T01:27:44;21.73;;;18.80;;
4027;SDS011;2028;51.346;12.396;2023-12-14T01:30:11;23.60;;;19.70;;
4027;SDS011;2028;51.346;12.396;2023-12-14T01:32:37;23.27;;;20.43;;
4027;SDS011;2028;51.346;12.396;2023-12-14T01:35:04;23.93;;;19.73;;
4027;SDS011;2028;51.346;12.396;2023-12-14T01:37:30;23.53;;;20.90;;
4027;SDS011;2028;51.346;12.396;2023-12-14T01:39:56;22.90;;;20.27;;
4027;SDS011;2028;51.346;12.396;2023-12-14T01:42:22;22.93;;;19.97;;
4027;SDS011;2028;51.346;12.396;2023-12-14T01:44:49;25.60;;;19.83;;
4027;SDS011;2028;51.346;12.396;2023-12-14T01:47:15;27.27;;;20.67;;
4027;SDS011;2028;51.346;12.396;2023-12-14T01:49:41;22.03;;;19.27;;
4027;SDS011;2028;51.346;12.396;2023-12-14T01:52:07;25.40;;;21.33;;
4027;SDS011;2028;51.346;12.396;2023-12-14T01:54:34;23.53;;;19.33;;
4027;SDS011;2028;51.346;12.396;2023-12-14T01:57:00;23.30;;;19.33;;
4027;SDS011;2028;51.346;12.396;2023-12-14T01:59:26;31.93;;;20.00;;
4027;SDS011;2028;51.346;12.396;2023-12-14T02:01:52;22.20;;;19.00;;
4027;SDS011;2028;51.346;12.396;2023-12-14T02:04:22;26.83;;;20.13;;
4027;SDS011;2028;51.346;12.396;2023-12-14T02:06:49;32.77;;;20.30;;
4027;SDS011;2028;51.346;12.396;2023-12-14T02:09:16;23.73;;;19.23;;
4027;SDS011;2028;51.346;12.396;2023-12-14T02:11:42;25.40;;;21.30;;
4027;SDS011;2028;51.346;12.396;2023-12-14T02:14:09;24.80;;;21.03;;
4027;SDS011;2028;51.346;12.396;2023-12-14T02:16:36;23.23;;;20.50;;
4027;SDS011;2028;51.346;12.396;2023-12-14T02:19:04;24.50;;;21.30;;
4027;SDS011;2028;51.346;12.396;2023-12-14T02:21:30;25.40;;;21.67;;
4027;SDS011;2028;51.346;12.396;2023-12-14T02:23:56;26.23;;;20.90;;
4027;SDS011;2028;51.346;12.396;2023-12-14T02:26:23;27.53;;;21.20;;
4027;SDS011;2028;51.346;12.396;2023-12-14T02:28:49;26.67;;;22.47;;
4027;SDS011;2028;51.346;12.396;2023-12-14T02:31:15;27.80;;;19.27;;
4027;SDS011;2028;51.346;12.396;2023-12-14T02:33:42;25.37;;;19.93;;
4027;SDS011;2028;51.346;12.396;2023-12-14T02:36:08;23.63;;;18.40;;
4027;SDS011;2028;51.346;12.396;2023-12-14T02:38:34;23.33;;;19.03;;
4027;SDS011;2028;51.346;12.396;2023-12-14T02:41:01;22.90;;;19.10;;
4027;SDS011;2028;51.346;12.396;2023-12-14T02:43:27;22.90;;;18.70;;
4027;SDS011;2028;51.346;12.396;2023-12-14T02:45:53;36.80;;;19.50;;
4027;SDS011;2028;51.346;12.396;2023-12-14T02:48:26;47.87;;;18.93;;
4027;SDS011;2028;51.346;12.396;2023-12-14T02:50:52;37.47;;;18.10;;
4027;SDS011;2028;51.346;12.396;2023-12-14T02:53:19;26.70;;;17.70;;
4027;SDS011;2028;51.346;12.396;2023-12-14T02:55:45;22.93;;;17.30;;
4027;SDS011;2028;51.346;12.396;2023-12-14T02:58:11;31.50;;;17.77;;
4027;SDS011;2028;51.346;12.396;2023-12-14T03:00:38;21.87;;;16.03;;
4027;SDS011;2028;51.346;12.396;2023-12-14T03:03:04;24.17;;;16.90;;
4027;SDS011;2028;51.346;12.396;2023-12-14T03:05:30;34.00;;;16.40;;
4027;SDS011;2028;51.346;12.396;2023-12-14T03:07:56;20.37;;;15.63;;
4027;SDS011;2028;51.346;12.396;2023-12-14T03:10:22;19.57;;;16.30;;
4027;SDS011;2028;51.346;12.396;2023-12-14T03:12:49;34.17;;;17.33;;
4027;SDS011;2028;51.346;12.396;2023-12-14T03:15:16;19.37;;;16.23;;
4027;SDS011;2028;51.346;12.396;2023-12-14T03:17:43;22.93;;;15.73;;
4027;SDS011;2028;51.346;12.396;2023-12-14T03:20:10;26.70;;;17.40;;
4027;SDS011;2028;51.346;12.396;2023-12-14T03:22:36;21.23;;;14.98;;
4027;SDS011;2028;51.346;12.396;2023-12-14T03:25:03;20.47;;;14.60;;
4027;SDS011;2028;51.346;12.396;2023-12-14T03:27:30;21.83;;;15.33;;
4027;SDS011;2028;51.346;12.396;2023-12-14T03:29:56;19.83;;;14.30;;
4027;SDS011;2028;51.346;12.396;2023-12-14T03:32:23;18.97;;;14.53;;
4027;SDS011;2028;51.346;12.396;2023-12-14T03:34:49;22.33;;;14.70;;
4027;SDS011;2028;51.346;12.396;2023-12-14T03:37:15;17.80;;;14.03;;
4027;SDS011;2028;51.346;12.396;2023-12-14T03:39:41;20.50;;;14.73;;
4027;SDS011;2028;51.346;12.396;2023-12-14T03:42:08;17.97;;;13.70;;
4027;SDS011;2028;51.346;12.396;2023-12-14T03:44:34;15.77;;;12.70;;
4027;SDS011;2028;51.346;12.396;2023-12-14T03:47:00;18.67;;;13.67;;
4027;SDS011;2028;51.346;12.396;2023-12-14T03:49:26;17.88;;;13.27;;
4027;SDS011;2028;51.346;12.396;2023-12-14T03:51:52;18.00;;;13.63;;
4027;SDS011;2028;51.346;12.396;2023-12-14T03:54:19;18.87;;;13.73;;
4027;SDS011;2028;51.346;12.396;2023-12-14T03:56:45;17.50;;;13.57;;
4027;SDS011;2028;51.346;12.396;2023-12-14T03:59:11;17.02;;;13.65;;
4027;SDS011;2028;51.346;12.396;2023-12-14T04:01:37;15.97;;;14.20;;
4027;SDS011;2028;51.346;12.396;2023-12-14T04:04:05;18.08;;;14.50;;
4027;SDS011;2028;51.346;12.396;2023-12-14T04:06:32;17.17;;;14.77;;
4027;SDS011;2028;51.346;12.396;2023-12-14T04:08:58;17.03;;;14.80;;
4027;SDS011;2028;51.346;12.396;2023-12-14T04:11:24;18.60;;;14.93;;
4027;SDS011;2028;51.346;12.396;2023-12-14T04:13:51;16.80;;;14.50;;
4027;SDS011;2028;51.346;12.396;2023-12-14T04:16:22;16.27;;;14.00;;
4027;SDS011;2028;51.346;12.396;2023-12-14T04:18:48;19.47;;;16.63;;
4027;SDS011;2028;51.346;12.396;2023-12-14T04:21:14;17.70;;;15.03;;
4027;SDS011;2028;51.346;12.396;2023-12-14T04:23:41;20.33;;;17.20;;
4027;SDS011;2028;51.346;12.396;2023-12-14T04:26:07;21.07;;;17.93;;
4027;SDS011;2028;51.346;12.396;2023-12-14T04:28:35;21.33;;;17.33;;
4027;SDS011;2028;51.346;12.396;2023-12-14T04:31:01;21.40;;;17.95;;
4027;SDS011;2028;51.346;12.396;2023-12-14T04:33:27;22.40;;;18.73;;
4027;SDS011;2028;51.346;12.396;2023-12-14T04:35:54;24.00;;;19.20;;
4027;SDS011;2028;51.346;12.396;2023-12-14T04:38:20;22.40;;;18.27;;
4027;SDS011;2028;51.346;12.396;2023-12-14T04:40:46;23.67;;;19.40;;
4027;SDS011;2028;51.346;12.396;2023-12-14T04:43:13;21.03;;;17.60;;
4027;SDS011;2028;51.346;12.396;2023-12-14T04:45:40;21.67;;;18.43;;
4027;SDS011;2028;51.346;12.396;2023-12-14T04:48:06;21.17;;;18.03;;
4027;SDS011;2028;51.346;12.396;2023-12-14T04:50:33;20.10;;;17.10;;
4027;SDS011;2028;51.346;12.396;2023-12-14T04:52:59;18.03;;;16.13;;
4027;SDS011;2028;51.346;12.396;2023-12-14T04:55:25;17.37;;;14.17;;
4027;SDS011;2028;51.346;12.396;2023-12-14T04:57:53;14.63;;;13.13;;
4027;SDS011;2028;51.346;12.396;2023-12-14T05:00:19;17.57;;;14.03;;
4027;SDS011;2028;51.346;12.396;2023-12-14T05:02:46;15.23;;;13.63;;
4027;SDS011;2028;51.346;12.396;2023-12-14T05:05:13;15.43;;;13.83;;
4027;SDS011;2028;51.346;12.396;2023-12-14T05:07:40;16.50;;;14.83;;
4027;SDS011;2028;51.346;12.396;2023-12-14T05:10:06;15.77;;;14.17;;
4027;SDS011;2028;51.346;12.396;2023-12-14T05:12:32;16.77;;;15.07;;
4027;SDS011;2028;51.346;12.396;2023-12-14T05:14:58;15.37;;;13.77;;
4027;SDS011;2028;51.346;12.396;2023-12-14T05:17:25;14.70;;;13.23;;
4027;SDS011;2028;51.346;12.396;2023-12-14T05:19:51;15.03;;;13.53;;
4027;SDS011;2028;51.346;12.396;2023-12-14T05:22:17;13.50;;;12.10;;
4027;SDS011;2028;51.346;12.396;2023-12-14T05:24:46;12.57;;;11.27;;
4027;SDS011;2028;51.346;12.396;2023-12-14T05:27:12;12.80;;;11.47;;
4027;SDS011;2028;51.346;12.396;2023-12-14T05:29:39;13.37;;;11.57;;
4027;SDS011;2028;51.346;12.396;2023-12-14T05:32:06;12.43;;;11.00;;
4027;SDS011;2028;51.346;12.396;2023-12-14T05:34:32;13.57;;;11.10;;
4027;SDS011;2028;51.346;12.396;2023-12-14T05:36:58;12.05;;;10.85;;
4027;SDS011;2028;51.346;12.396;2023-12-14T05:39:25;11.57;;;10.40;;
4027;SDS011;2028;51.346;12.396;2023-12-14T05:41:51;12.17;;;10.97;;
4027;SDS011;2028;51.346;12.396;2023-12-14T05:44:17;11.80;;;10.60;;
4027;SDS011;2028;51.346;12.396;2023-12-14T05:46:43;12.63;;;11.43;;
4027;SDS011;2028;51.346;12.396;2023-12-14T05:49:10;12.30;;;11.10;;
4027;SDS011;2028;51.346;12.396;2023-12-14T05:51:36;12.77;;;11.57;;
4027;SDS011;2028;51.346;12.396;2023-12-14T05:54:04;14.73;;;13.23;;
4027;SDS011;2028;51.346;12.396;2023-12-14T05:56:31;15.48;;;13.43;;
4027;SDS011;2028;51.346;12.396;2023-12-14T05:58:57;15.48;;;14.00;;
4027;SDS011;2028;51.346;12.396;2023-12-14T06:01:24;14.30;;;13.00;;
4027;SDS011;2028;51.346;12.396;2023-12-14T06:03:51;13.82;;;12.48;;
4027;SDS011;2028;51.346;12.396;2023-12-14T06:06:17;14.32;;;12.90;;
4027;SDS011;2028;51.346;12.396;2023-12-14T06:08:45;13.73;;;12.43;;
4027;SDS011;2028;51.346;12.396;2023-12-14T06:11:11;12.87;;;11.67;;
4027;SDS011;2028;51.346;12.396;2023-12-14T06:13:37;12.05;;;10.85;;
4027;SDS011;2028;51.346;12.396;2023-12-14T06:16:05;11.80;;;10.70;;
4027;SDS011;2028;51.346;12.396;2023-12-14T06:18:37;11.02;;;10.02;;
4027;SDS011;2028;51.346;12.396;2023-12-14T06:21:06;11.18;;;10.07;;
4027;SDS011;2028;51.346;12.396;2023-12-14T06:23:34;11.55;;;10.45;;
4027;SDS011;2028;51.346;12.396;2023-12-14T06:26:02;11.45;;;10.35;;
4027;SDS011;2028;51.346;12.396;2023-12-14T06:28:29;12.77;;;11.43;;
4027;SDS011;2028;51.346;12.396;2023-12-14T06:30:56;11.77;;;10.57;;
4027;SDS011;2028;51.346;12.396;2023-12-14T06:33:22;12.70;;;11.40;;
4027;SDS011;2028;51.346;12.396;2023-12-14T06:35:48;12.18;;;10.98;;
4027;SDS011;2028;51.346;12.396;2023-12-14T06:38:15;12.38;;;11.27;;
4027;SDS011;2028;51.346;12.396;2023-12-14T06:40:41;14.52;;;12.93;;
4027;SDS011;2028;51.346;12.396;2023-12-14T06:43:08;14.40;;;12.32;;
4027;SDS011;2028;51.346;12.396;2023-12-14T06:45:36;14.50;;;13.07;;
4027;SDS011;2028;51.346;12.396;2023-12-14T06:48:03;14.20;;;12.80;;
4027;SDS011;2028;51.346;12.396;2023-12-14T06:50:30;14.13;;;12.73;;
4027;SDS011;2028;51.346;12.396;2023-12-14T06:52:56;15.83;;;14.23;;
4027;SDS011;2028;51.346;12.396;2023-12-14T06:55:22;14.93;;;13.48;;
4027;SDS011;2028;51.346;12.396;2023-12-14T06:57:49;16.03;;;14.43;;
4027;SDS011;2028;51.346;12.396;2023-12-14T07:00:15;16.17;;;14.57;;
4027;SDS011;2028;51.346;12.396;2023-12-14T07:02:42;17.00;;;15.30;;
4027;SDS011;2028;51.346;12.396;2023-12-14T07:05:09;16.92;;;15.25;;
4027;SDS011;2028;51.346;12.396;2023-12-14T07:07:35;16.17;;;14.57;;
4027;SDS011;2028;51.346;12.396;2023-12-14T07:10:01;15.57;;;13.98;;
4027;SDS011;2028;51.346;12.396;2023-12-14T07:12:28;17.45;;;15.65;;
4027;SDS011;2028;51.346;12.396;2023-12-14T07:14:54;17.35;;;15.55;;
4027;SDS011;2028;51.346;12.396;2023-12-14T07:17:20;17.25;;;15.45;;
4027;SDS011;2028;51.346;12.396;2023-12-14T07:19:47;16.33;;;14.63;;
4027;SDS011;2028;51.346;12.396;2023-12-14T07:22:13;16.33;;;14.20;;
4027;SDS011;2028;51.346;12.396;2023-12-14T07:24:41;38.78;;;34.13;;
4027;SDS011;2028;51.346;12.396;2023-12-14T07:27:10;23.30;;;20.17;;
4027;SDS011;2028;51.346;12.396;2023-12-14T07:29:41;14.98;;;13.52;;
4027;SDS011;2028;51.346;12.396;2023-12-14T07:32:10;14.00;;;12.48;;
4027;SDS011;2028;51.346;12.396;2023-12-14T07:34:37;12.13;;;10.93;;
4027;SDS011;2028;51.346;12.396;2023-12-14T07:37:03;13.13;;;11.83;;
4027;SDS011;2028;51.346;12.396;2023-12-14T07:39:31;15.20;;;13.70;;
4027;SDS011;2028;51.346;12.396;2023-12-14T07:41:57;17.35;;;15.40;;
4027;SDS011;2028;51.346;12.396;2023-12-14T07:44:24;16.83;;;14.75;;
4027;SDS011;2028;51.346;12.396;2023-12-14T07:46:51;19.00;;;17.00;;
4027;SDS011;2028;51.346;12.396;2023-12-14T07:49:17;18.15;;;16.23;;
4027;SDS011;2028;51.346;12.396;2023-12-14T07:51:46;17.05;;;15.27;;
4027;SDS011;2028;51.346;12.396;2023-12-14T07:54:12;18.45;;;16.58;;
4027;SDS011;2028;51.346;12.396;2023-12-14T07:56:38;19.00;;;17.05;;
4027;SDS011;2028;51.346;12.396;2023-12-14T07:59:07;16.47;;;14.87;;
4027;SDS011;2028;51.346;12.396;2023-12-14T08:01:34;17.08;;;15.38;;
4027;SDS011;2028;51.346;12.396;2023-12-14T08:04:01;16.88;;;15.20;;
4027;SDS011;2028;51.346;12.396;2023-12-14T08:06:29;17.15;;;15.43;;
4027;SDS011;2028;51.346;12.396;2023-12-14T08:08:56;15.47;;;13.97;;
4027;SDS011;2028;51.346;12.396;2023-12-14T08:11:23;17.00;;;15.20;;
4027;SDS011;2028;51.346;12.396;2023-12-14T08:13:50;17.07;;;15.47;;
4027;SDS011;2028;51.346;12.396;2023-12-14T08:16:16;16.60;;;14.97;;
4027;SDS011;2028;51.346;12.396;2023-12-14T08:18:43;16.17;;;14.52;;
4027;SDS011;2028;51.346;12.396;2023-12-14T08:21:11;16.00;;;14.45;;
4027;SDS011;2028;51.346;12.396;2023-12-14T08:23:37;17.30;;;15.60;;
4027;SDS011;2028;51.346;12.396;2023-12-14T08:26:04;17.27;;;15.57;;
4027;SDS011;2028;51.346;12.396;2023-12-14T08:28:30;18.45;;;16.75;;
4027;SDS011;2028;51.346;12.396;2023-12-14T08:30:57;17.33;;;15.65;;
4027;SDS011;2028;51.346;12.396;2023-12-14T08:33:24;15.77;;;14.27;;
4027;SDS011;2028;51.346;12.396;2023-12-14T08:35:50;15.88;;;14.38;;
4027;SDS011;2028;51.346;12.396;2023-12-14T08:38:17;16.23;;;14.73;;
4027;SDS011;2028;51.346;12.396;2023-12-14T08:40:43;15.48;;;14.00;;
4027;SDS011;2028;51.346;12.396;2023-12-14T08:43:10;15.13;;;13.73;;
4027;SDS011;2028;51.346;12.396;2023-12-14T08:45:36;15.70;;;14.20;;
4027;SDS011;2028;51.346;12.396;2023-12-14T08:48:03;15.25;;;13.75;;
4027;SDS011;2028;51.346;12.396;2023-12-14T08:50:29;14.50;;;13.15;;
4027;SDS011;2028;51.346;12.396;2023-12-14T08:52:56;14.60;;;13.20;;
4027;SDS011;2028;51.346;12.396;2023-12-14T08:55:25;15.15;;;13.65;;
4027;SDS011;2028;51.346;12.396;2023-12-14T08:57:52;16.38;;;14.68;;
4027;SDS011;2028;51.346;12.396;2023-12-14T09:00:18;16.70;;;15.10;;
4027;SDS011;2028;51.346;12.396;2023-12-14T09:02:45;16.92;;;15.32;;
4027;SDS011;2028;51.346;12.396;2023-12-14T09:05:12;17.05;;;15.43;;
4027;SDS011;2028;51.346;12.396;2023-12-14T09:07:39;18.63;;;16.83;;
4027;SDS011;2028;51.346;12.396;2023-12-14T09:10:06;18.75;;;16.95;;
4027;SDS011;2028;51.346;12.396;2023-12-14T09:12:35;20.23;;;18.17;;
4027;SDS011;2028;51.346;12.396;2023-12-14T09:15:02;19.95;;;17.92;;
4027;SDS011;2028;51.346;12.396;2023-12-14T09:17:28;19.20;;;17.40;;
4027;SDS011;2028;51.346;12.396;2023-12-14T09:19:58;18.13;;;16.35;;
4027;SDS011;2028;51.346;12.396;2023-12-14T09:22:25;17.85;;;16.13;;
4027;SDS011;2028;51.346;12.396;2023-12-14T09:24:51;18.27;;;16.58;;
4027;SDS011;2028;51.346;12.396;2023-12-14T09:27:18;16.95;;;15.35;;
4027;SDS011;2028;51.346;12.396;2023-12-14T09:29:44;17.73;;;16.03;;
4027;SDS011;2028;51.346;12.396;2023-12-14T09:32:10;15.52;;;14.02;;
4027;SDS011;2028;51.346;12.396;2023-12-14T09:34:37;13.90;;;12.65;;
4027;SDS011;2028;51.346;12.396;2023-12-14T09:37:03;13.13;;;11.93;;
4027;SDS011;2028;51.346;12.396;2023-12-14T09:39:29;12.68;;;11.55;;
4027;SDS011;2028;51.346;12.396;2023-12-14T09:42:01;14.30;;;13.00;;
4027;SDS011;2028;51.346;12.396;2023-12-14T09:44:29;11.60;;;10.60;;
4027;SDS011;2028;51.346;12.396;2023-12-14T09:46:55;10.88;;;9.68;;
4027;SDS011;2028;51.346;12.396;2023-12-14T09:49:23;11.40;;;10.40;;
4027;SDS011;2028;51.346;12.396;2023-12-14T09:51:53;10.10;;;9.20;;
4027;SDS011;2028;51.346;12.396;2023-12-14T09:54:19;11.20;;;10.20;;
4027;SDS011;2028;51.346;12.396;2023-12-14T09:56:46;11.57;;;10.57;;
4027;SDS011;2028;51.346;12.396;2023-12-14T09:59:13;12.02;;;10.88;;
4027;SDS011;2028;51.346;12.396;2023-12-14T10:01:40;14.55;;;13.25;;
4027;SDS011;2028;51.346;12.396;2023-12-14T10:06:32;15.03;;;13.37;;
4027;SDS011;2028;51.346;12.396;2023-12-14T10:08:59;14.27;;;12.97;;
4027;SDS011;2028;51.346;12.396;2023-12-14T10:11:25;14.25;;;13.05;;
4027;SDS011;2028;51.346;12.396;2023-12-14T10:13:52;12.65;;;11.52;;
4027;SDS011;2028;51.346;12.396;2023-12-14T10:16:28;12.75;;;11.63;;
4027;SDS011;2028;51.346;12.396;2023-12-14T10:18:56;12.82;;;11.63;;
4027;SDS011;2028;51.346;12.396;2023-12-14T10:21:23;12.10;;;10.90;;
4027;SDS011;2028;51.346;12.396;2023-12-14T10:23:49;11.02;;;10.02;;
4027;SDS011;2028;51.346;12.396;2023-12-14T10:26:15;9.70;;;8.90;;
4027;SDS011;2028;51.346;12.396;2023-12-14T10:28:42;9.73;;;8.93;;
4027;SDS011;2028;51.346;12.396;2023-12-14T10:31:09;10.45;;;9.55;;
4027;SDS011;2028;51.346;12.396;2023-12-14T10:33:35;11.10;;;10.10;;
4027;SDS011;2028;51.346;12.396;2023-12-14T10:36:01;11.50;;;10.50;;
4027;SDS011;2028;51.346;12.396;2023-12-14T10:38:28;11.13;;;10.13;;
4027;SDS011;2028;51.346;12.396;2023-12-14T10:40:55;9.73;;;8.93;;
4027;SDS011;2028;51.346;12.396;2023-12-14T10:43:24;9.70;;;8.82;;
4027;SDS011;2028;51.346;12.396;2023-12-14T10:45:53;9.50;;;8.70;;
4027;SDS011;2028;51.346;12.396;2023-12-14T10:48:19;10.60;;;9.60;;
4027;SDS011;2028;51.346;12.396;2023-12-14T10:50:46;13.02;;;11.73;;
4027;SDS011;2028;51.346;12.396;2023-12-14T10:53:14;12.00;;;10.80;;
4027;SDS011;2028;51.346;12.396;2023-12-14T10:55:41;10.55;;;9.55;;
4027;SDS011;2028;51.346;12.396;2023-12-14T10:58:08;9.32;;;8.43;;
4027;SDS011;2028;51.346;12.396;2023-12-14T11:00:35;9.52;;;8.63;;
4027;SDS011;2028;51.346;12.396;2023-12-14T11:03:03;9.48;;;8.57;;
4027;SDS011;2028;51.346;12.396;2023-12-14T11:05:31;9.88;;;8.88;;
4027;SDS011;2028;51.346;12.396;2023-12-14T11:08:00;9.63;;;8.73;;
4027;SDS011;2028;51.346;12.396;2023-12-14T11:10:35;10.90;;;9.93;;
4027;SDS011;2028;51.346;12.396;2023-12-14T11:13:05;15.77;;;13.38;;
4027;SDS011;2028;51.346;12.396;2023-12-14T11:15:35;15.55;;;13.98;;
4027;SDS011;2028;51.346;12.396;2023-12-14T11:23:10;11.15;;;10.15;;
4027;SDS011;2028;51.346;12.396;2023-12-14T11:25:41;10.52;;;9.52;;
4027;SDS011;2028;51.346;12.396;2023-12-14T11:28:07;9.65;;;8.75;;
4027;SDS011;2028;51.346;12.396;2023-12-14T11:30:35;10.50;;;9.40;;
4027;SDS011;2028;51.346;12.396;2023-12-14T11:33:01;9.50;;;8.50;;
4027;SDS011;2028;51.346;12.396;2023-12-14T11:35:28;11.07;;;9.88;;
4027;SDS011;2028;51.346;12.396;2023-12-14T11:37:54;10.13;;;8.88;;
4027;SDS011;2028;51.346;12.396;2023-12-14T11:40:23;13.47;;;11.70;;
4027;SDS011;2028;51.346;12.396;2023-12-14T11:43:04;16.00;;;13.90;;
4027;SDS011;2028;51.346;12.396;2023-12-14T11:45:34;32.15;;;21.95;;
4027;SDS011;2028;51.346;12.396;2023-12-14T11:48:02;16.75;;;13.27;;
4027;SDS011;2028;51.346;12.396;2023-12-14T11:50:30;10.23;;;9.20;;
4027;SDS011;2028;51.346;12.396;2023-12-14T11:52:57;8.20;;;7.40;;
4027;SDS011;2028;51.346;12.396;2023-12-14T11:55:23;8.68;;;7.88;;
4027;SDS011;2028;51.346;12.396;2023-12-14T11:57:50;8.32;;;7.63;;
4027;SDS011;2028;51.346;12.396;2023-12-14T12:00:16;7.70;;;6.90;;
4027;SDS011;2028;51.346;12.396;2023-12-14T12:02:43;7.68;;;6.88;;
4027;SDS011;2028;51.346;12.396;2023-12-14T12:05:09;8.57;;;7.60;;
4027;SDS011;2028;51.346;12.396;2023-12-14T12:07:39;8.32;;;7.50;;
4027;SDS011;2028;51.346;12.396;2023-12-14T12:10:09;6.93;;;6.40;;
4027;SDS011;2028;51.346;12.396;2023-12-14T12:12:36;7.50;;;6.85;;
4027;SDS011;2028;51.346;12.396;2023-12-14T12:15:03;7.60;;;6.90;;
4027;SDS011;2028;51.346;12.396;2023-12-14T12:17:29;8.35;;;7.65;;
4027;SDS011;2028;51.346;12.396;2023-12-14T12:20:04;10.68;;;9.68;;
4027;SDS011;2028;51.346;12.396;2023-12-14T12:22:30;12.80;;;10.85;;
4027;SDS011;2028;51.346;12.396;2023-12-14T12:24:56;20.15;;;16.30;;
4027;SDS011;2028;51.346;12.396;2023-12-14T12:27:23;17.17;;;13.50;;
4027;SDS011;2028;51.346;12.396;2023-12-14T12:29:50;9.60;;;8.68;;
4027;SDS011;2028;51.346;12.396;2023-12-14T12:32:19;9.55;;;8.65;;
4027;SDS011;2028;51.346;12.396;2023-12-14T12:34:45;9.95;;;8.95;;
4027;SDS011;2028;51.346;12.396;2023-12-14T12:37:11;22.63;;;16.67;;
4027;SDS011;2028;51.346;12.396;2023-12-14T12:39:37;24.83;;;18.75;;
4027;SDS011;2028;51.346;12.396;2023-12-14T12:42:04;17.08;;;13.80;;
4027;SDS011;2028;51.346;12.396;2023-12-14T12:44:31;25.27;;;20.45;;
4027;SDS011;2028;51.346;12.396;2023-12-14T12:46:57;15.80;;;14.05;;
4027;SDS011;2028;51.346;12.396;2023-12-14T12:49:24;11.55;;;10.38;;
4027;SDS011;2028;51.346;12.396;2023-12-14T12:51:50;11.98;;;10.70;;
4027;SDS011;2028;51.346;12.396;2023-12-14T12:54:17;10.98;;;9.90;;
4027;SDS011;2028;51.346;12.396;2023-12-14T12:56:43;11.02;;;10.00;;
4027;SDS011;2028;51.346;12.396;2023-12-14T12:59:09;9.60;;;8.70;;
4027;SDS011;2028;51.346;12.396;2023-12-14T13:01:36;9.40;;;8.50;;
4027;SDS011;2028;51.346;12.396;2023-12-14T13:04:02;8.95;;;8.15;;
4027;SDS011;2028;51.346;12.396;2023-12-14T13:06:30;9.30;;;8.40;;
4027;SDS011;2028;51.346;12.396;2023-12-14T13:08:56;7.80;;;7.10;;
4027;SDS011;2028;51.346;12.396;2023-12-14T13:11:22;9.27;;;8.37;;
4027;SDS011;2028;51.346;12.396;2023-12-14T13:13:51;8.48;;;7.68;;
4027;SDS011;2028;51.346;12.396;2023-12-14T13:16:18;7.40;;;6.70;;
4027;SDS011;2028;51.346;12.396;2023-12-14T13:18:44;7.35;;;6.65;;
4027;SDS011;2028;51.346;12.396;2023-12-14T13:21:11;6.80;;;6.10;;
4027;SDS011;2028;51.346;12.396;2023-12-14T13:23:38;7.22;;;6.60;;
4027;SDS011;2028;51.346;12.396;2023-12-14T13:26:04;7.03;;;6.32;;
4027;SDS011;2028;51.346;12.396;2023-12-14T13:28:30;7.57;;;6.80;;
4027;SDS011;2028;51.346;12.396;2023-12-14T13:30:56;13.75;;;10.57;;
4027;SDS011;2028;51.346;12.396;2023-12-14T13:33:23;9.32;;;8.20;;
4027;SDS011;2028;51.346;12.396;2023-12-14T13:35:49;9.02;;;7.60;;
4027;SDS011;2028;51.346;12.396;2023-12-14T13:38:15;9.02;;;6.78;;
4027;SDS011;2028;51.346;12.396;2023-12-14T13:40:42;8.90;;;8.00;;
4027;SDS011;2028;51.346;12.396;2023-12-14T13:43:08;7.55;;;6.85;;
4027;SDS011;2028;51.346;12.396;2023-12-14T13:45:36;6.88;;;6.28;;
4027;SDS011;2028;51.346;12.396;2023-12-14T13:48:03;7.15;;;6.45;;
4027;SDS011;2028;51.346;12.396;2023-12-14T13:50:29;6.90;;;6.30;;
4027;SDS011;2028;51.346;12.396;2023-12-14T13:52:55;7.60;;;6.90;;
4027;SDS011;2028;51.346;12.396;2023-12-14T13:55:22;8.15;;;7.35;;
4027;SDS011;2028;51.346;12.396;2023-12-14T13:57:48;12.50;;;9.93;;
4027;SDS011;2028;51.346;12.396;2023-12-14T14:00:15;19.95;;;15.85;;
4027;SDS011;2028;51.346;12.396;2023-12-14T14:02:41;18.75;;;14.35;;
4027;SDS011;2028;51.346;12.396;2023-12-14T14:05:08;10.88;;;9.77;;
4027;SDS011;2028;51.346;12.396;2023-12-14T14:07:34;13.70;;;11.10;;
4027;SDS011;2028;51.346;12.396;2023-12-14T14:10:00;9.52;;;8.52;;
4027;SDS011;2028;51.346;12.396;2023-12-14T14:12:27;8.10;;;7.28;;
4027;SDS011;2028;51.346;12.396;2023-12-14T14:14:53;8.68;;;7.22;;
4027;SDS011;2028;51.346;12.396;2023-12-14T14:17:19;8.70;;;7.72;;
4027;SDS011;2028;51.346;12.396;2023-12-14T14:19:45;8.38;;;7.57;;
4027;SDS011;2028;51.346;12.396;2023-12-14T14:22:12;9.98;;;9.05;;
4027;SDS011;2028;51.346;12.396;2023-12-14T14:24:38;11.98;;;10.70;;
4027;SDS011;2028;51.346;12.396;2023-12-14T14:27:05;12.10;;;10.55;;
4027;SDS011;2028;51.346;12.396;2023-12-14T14:29:31;16.02;;;11.50;;
4027;SDS011;2028;51.346;12.396;2023-12-14T14:31:57;11.52;;;10.32;;
4027;SDS011;2028;51.346;12.396;2023-12-14T14:34:24;13.60;;;12.20;;
4027;SDS011;2028;51.346;12.396;2023-12-14T14:36:50;14.83;;;13.10;;
4027;SDS011;2028;51.346;12.396;2023-12-14T14:39:16;13.80;;;12.40;;
4027;SDS011;2028;51.346;12.396;2023-12-14T14:41:46;15.32;;;13.82;;
4027;SDS011;2028;51.346;12.396;2023-12-14T14:44:12;15.18;;;13.60;;